createdAt,value
2022-10-01T00:02:05.893Z,8.98
2022-10-01T00:04:33.638Z,8.70
2022-10-01T00:07:05.037Z,9.43
2022-10-01T00:09:33.120Z,8.50
2022-10-01T00:12:01.009Z,9.13
2022-10-01T00:14:29.902Z,9.13
2022-10-01T00:16:58.055Z,8.90
2022-10-01T00:19:25.942Z,9.35
2022-10-01T00:21:53.757Z,9.40
2022-10-01T00:24:23.123Z,8.43
2022-10-01T00:26:51.374Z,9.07
2022-10-01T00:29:19.302Z,9.55
2022-10-01T00:31:47.366Z,7.88
2022-10-01T00:34:15.965Z,8.00
2022-10-01T00:36:46.807Z,8.07
2022-10-01T00:39:14.950Z,8.00
2022-10-01T00:41:44.209Z,7.07
2022-10-01T00:44:33.486Z,7.45
2022-10-01T00:47:04.651Z,7.57
2022-10-01T00:49:33.760Z,8.10
2022-10-01T00:52:03.514Z,7.13
2022-10-01T00:54:34.033Z,7.47
2022-10-01T00:57:04.324Z,6.95
2022-10-01T00:59:32.731Z,7.22
2022-10-01T01:02:01.453Z,6.80
2022-10-01T01:04:29.225Z,6.88
2022-10-01T01:06:58.491Z,7.60
2022-10-01T01:09:30.216Z,6.97
2022-10-01T01:12:01.945Z,6.22
2022-10-01T01:14:37.299Z,6.25
2022-10-01T01:17:08.709Z,6.70
2022-10-01T01:19:43.424Z,5.97
2022-10-01T01:22:13.528Z,6.75
2022-10-01T01:24:47.704Z,6.60
2022-10-01T01:27:20.526Z,6.47
2022-10-01T01:29:53.007Z,6.60
2022-10-01T01:32:23.514Z,6.25
2022-10-01T01:34:52.415Z,6.30
2022-10-01T01:37:22.267Z,6.75
2022-10-01T01:39:52.123Z,6.85
2022-10-01T01:42:23.000Z,6.75
2022-10-01T01:44:54.427Z,5.75
2022-10-01T01:47:23.179Z,6.15
2022-10-01T01:49:51.853Z,6.07
2022-10-01T01:52:19.662Z,5.63
2022-10-01T01:54:49.997Z,6.30
2022-10-01T01:57:18.407Z,6.25
2022-10-01T01:59:47.257Z,7.03
2022-10-01T02:02:18.506Z,6.68
2022-10-01T02:04:47.564Z,5.57
2022-10-01T02:07:21.265Z,5.20
2022-10-01T02:09:53.013Z,5.25
2022-10-01T02:12:26.081Z,5.43
2022-10-01T02:14:55.498Z,5.53
2022-10-01T02:17:30.676Z,5.15
2022-10-01T02:20:00.342Z,6.53
2022-10-01T02:22:32.838Z,6.75
2022-10-01T02:25:03.011Z,6.57
2022-10-01T02:27:31.896Z,7.13
2022-10-01T02:30:01.601Z,6.90
2022-10-01T02:32:32.670Z,6.70
2022-10-01T02:35:01.010Z,7.15
2022-10-01T02:37:29.513Z,7.95
2022-10-01T02:39:59.027Z,7.13
2022-10-01T02:42:31.097Z,7.28
2022-10-01T02:45:02.620Z,7.63
2022-10-01T02:47:34.599Z,7.70
2022-10-01T02:50:02.384Z,7.18
2022-10-01T02:52:33.738Z,6.70
2022-10-01T02:55:02.978Z,7.82
2022-10-01T02:57:30.667Z,7.30
2022-10-01T02:59:59.756Z,6.93
2022-10-01T03:02:28.042Z,7.55
2022-10-01T03:04:57.504Z,7.88
2022-10-01T03:07:25.285Z,7.22
2022-10-01T03:09:52.768Z,7.90
2022-10-01T03:12:20.586Z,7.32
2022-10-01T03:14:48.551Z,7.15
2022-10-01T03:17:16.340Z,7.97
2022-10-01T03:19:43.948Z,8.00
2022-10-01T03:22:13.957Z,7.63
2022-10-01T03:24:41.539Z,6.90
2022-10-01T03:27:09.029Z,7.13
2022-10-01T03:29:36.541Z,7.45
2022-10-01T03:32:04.069Z,6.82
2022-10-01T03:34:31.869Z,7.28
2022-10-01T03:36:59.452Z,7.10
2022-10-01T03:39:28.406Z,7.93
2022-10-01T03:41:55.906Z,8.23
2022-10-01T03:44:23.451Z,8.52
2022-10-01T03:46:51.799Z,8.13
2022-10-01T03:49:19.670Z,7.68
2022-10-01T03:51:47.280Z,8.45
2022-10-01T03:54:15.171Z,7.30
2022-10-01T03:56:44.346Z,7.72
2022-10-01T03:59:12.003Z,7.18
2022-10-01T04:01:39.973Z,7.65
2022-10-01T04:04:07.742Z,7.72
2022-10-01T04:06:35.326Z,6.78
2022-10-01T04:09:02.906Z,7.50
2022-10-01T04:11:30.465Z,6.72
2022-10-01T04:13:59.497Z,6.85
2022-10-01T04:16:27.066Z,7.25
2022-10-01T04:18:54.647Z,7.05
2022-10-01T04:21:22.167Z,8.13
2022-10-01T04:23:50.264Z,7.65
2022-10-01T04:26:19.151Z,8.15
2022-10-01T04:28:47.523Z,8.27
2022-10-01T04:31:25.673Z,8.75
2022-10-01T04:33:53.830Z,8.45
2022-10-01T04:36:21.321Z,8.75
2022-10-01T04:38:51.292Z,8.43
2022-10-01T04:41:18.834Z,8.30
2022-10-01T04:43:46.298Z,8.00
2022-10-01T04:46:14.188Z,8.00
2022-10-01T04:48:43.132Z,8.35
2022-10-01T04:51:10.673Z,7.55
2022-10-01T04:53:38.777Z,7.13
2022-10-01T04:56:06.405Z,7.30
2022-10-01T04:58:33.883Z,6.15
2022-10-01T05:01:02.431Z,7.72
2022-10-01T05:03:30.000Z,7.47
2022-10-01T05:05:58.883Z,7.43
2022-10-01T05:08:26.437Z,7.60
2022-10-01T05:10:54.157Z,7.88
2022-10-01T05:13:21.618Z,7.85
2022-10-01T05:15:50.411Z,7.07
2022-10-01T05:18:17.968Z,7.85
2022-10-01T05:20:45.571Z,7.50
2022-10-01T05:23:14.716Z,7.00
2022-10-01T05:25:42.743Z,8.05
2022-10-01T05:28:10.493Z,7.45
2022-10-01T05:30:38.018Z,8.85
2022-10-01T05:33:05.643Z,8.93
2022-10-01T05:35:33.168Z,8.90
2022-10-01T05:38:03.112Z,7.60
2022-10-01T05:40:32.021Z,7.57
2022-10-01T05:43:00.274Z,10.82
2022-10-01T05:45:30.502Z,8.50
2022-10-01T05:48:01.421Z,7.35
2022-10-01T05:50:31.631Z,3.20
2022-10-01T05:53:00.444Z,4.88
2022-10-01T05:55:31.892Z,5.68
2022-10-01T05:58:01.363Z,3.90
2022-10-01T06:00:29.831Z,2.60
2022-10-01T06:02:57.913Z,2.50
2022-10-01T06:05:25.944Z,2.40
2022-10-01T06:07:53.736Z,2.00
2022-10-01T06:10:21.663Z,2.03
2022-10-01T06:12:51.082Z,2.28
2022-10-01T06:15:20.029Z,2.20
2022-10-01T06:17:47.748Z,2.10
2022-10-01T06:20:17.162Z,2.10
2022-10-01T06:22:45.139Z,1.77
2022-10-01T06:25:16.687Z,1.90
2022-10-01T06:27:44.233Z,1.80
2022-10-01T06:30:12.291Z,2.30
2022-10-01T06:32:41.194Z,1.92
2022-10-01T06:35:09.135Z,1.83
2022-10-01T06:37:38.137Z,2.08
2022-10-01T06:40:06.328Z,1.95
2022-10-01T06:42:34.117Z,2.05
2022-10-01T06:45:03.469Z,2.10
2022-10-01T06:47:31.109Z,2.13
2022-10-01T06:50:00.198Z,2.00
2022-10-01T06:52:45.618Z,1.90
2022-10-01T06:55:16.450Z,2.20
2022-10-01T06:57:44.899Z,2.50
2022-10-01T07:00:13.300Z,2.53
2022-10-01T07:02:41.271Z,2.58
2022-10-01T07:05:10.830Z,2.97
2022-10-01T07:07:39.185Z,3.00
2022-10-01T07:10:08.291Z,2.72
2022-10-01T07:12:36.294Z,3.17
2022-10-01T07:15:04.154Z,2.70
2022-10-01T07:17:31.838Z,2.50
2022-10-01T07:19:59.522Z,2.30
2022-10-01T07:22:28.538Z,5.15
2022-10-01T07:24:56.121Z,3.65
2022-10-01T07:27:25.616Z,3.10
2022-10-01T07:29:53.205Z,5.53
2022-10-01T07:32:21.474Z,6.05
2022-10-01T07:34:49.096Z,6.60
2022-10-01T07:37:16.762Z,7.07
2022-10-01T07:39:45.823Z,7.63
2022-10-01T07:42:13.495Z,8.15
2022-10-01T07:44:41.049Z,7.57
2022-10-01T07:47:08.811Z,7.88
2022-10-01T07:49:36.379Z,7.68
2022-10-01T07:52:04.529Z,9.32
2022-10-01T07:54:32.501Z,7.97
2022-10-01T07:57:03.990Z,9.80
2022-10-01T07:59:31.685Z,9.43
2022-10-01T08:01:59.597Z,9.63
2022-10-01T08:04:44.734Z,9.15
2022-10-01T08:07:12.294Z,9.57
2022-10-01T08:09:40.219Z,9.50
2022-10-01T08:12:09.087Z,15.48
2022-10-01T08:14:36.640Z,12.68
2022-10-01T08:17:04.155Z,12.82
2022-10-01T08:19:31.784Z,13.35
2022-10-01T08:21:59.299Z,13.65
2022-10-01T08:24:26.912Z,12.55
2022-10-01T08:26:57.718Z,14.23
2022-10-01T08:29:27.722Z,24.17
2022-10-01T08:31:56.294Z,13.98
2022-10-01T08:34:23.824Z,11.80
2022-10-01T08:36:52.270Z,11.10
2022-10-01T08:39:20.537Z,11.88
2022-10-01T08:41:59.415Z,12.27
2022-10-01T08:44:29.736Z,11.25
2022-10-01T08:46:58.656Z,10.27
2022-10-01T08:49:30.477Z,10.20
2022-10-01T08:52:03.505Z,12.93
2022-10-01T08:54:34.677Z,12.73
2022-10-01T08:57:03.777Z,12.52
2022-10-01T08:59:37.103Z,12.32
2022-10-01T09:02:16.290Z,11.43
2022-10-01T09:04:43.805Z,12.20
2022-10-01T09:07:16.926Z,11.40
2022-10-01T09:09:48.958Z,8.98
2022-10-01T09:12:23.799Z,9.75
2022-10-01T09:15:03.348Z,6.07
2022-10-01T09:17:41.642Z,5.55
2022-10-01T09:20:12.740Z,4.82
2022-10-01T09:22:41.541Z,5.13
2022-10-01T09:25:13.903Z,4.15
2022-10-01T09:27:41.627Z,7.28
2022-10-01T09:30:14.262Z,7.93
2022-10-01T09:32:44.302Z,11.82
2022-10-01T09:35:19.536Z,10.05
2022-10-01T09:37:50.050Z,8.02
2022-10-01T09:40:22.357Z,4.78
2022-10-01T09:42:50.138Z,3.90
2022-10-01T09:45:19.855Z,3.90
2022-10-01T09:47:50.388Z,3.85
2022-10-01T09:50:20.742Z,3.35
2022-10-01T09:52:49.485Z,3.70
2022-10-01T09:55:23.785Z,5.38
2022-10-01T09:57:53.314Z,3.83
2022-10-01T10:00:22.933Z,3.90
2022-10-01T10:02:51.074Z,3.50
2022-10-01T10:05:19.826Z,4.78
2022-10-01T10:07:48.253Z,3.80
2022-10-01T10:10:25.271Z,3.60
2022-10-01T10:12:55.953Z,3.95
2022-10-01T10:15:26.225Z,6.18
2022-10-01T10:17:55.665Z,4.13
2022-10-01T10:20:29.397Z,4.70
2022-10-01T10:23:06.881Z,6.82
2022-10-01T10:25:34.313Z,6.70
2022-10-01T10:28:02.331Z,4.18
2022-10-01T10:30:31.165Z,3.88
2022-10-01T10:33:04.098Z,3.13
2022-10-01T10:35:31.794Z,5.90
2022-10-01T10:37:59.802Z,8.65
2022-10-01T10:40:29.727Z,5.32
2022-10-01T10:42:58.385Z,3.75
2022-10-01T10:45:30.924Z,3.25
2022-10-01T10:48:00.775Z,3.55
2022-10-01T10:50:32.324Z,4.00
2022-10-01T10:53:00.008Z,3.70
2022-10-01T10:55:28.864Z,6.28
2022-10-01T10:57:58.044Z,5.10
2022-10-01T11:00:26.801Z,4.25
2022-10-01T11:02:56.985Z,4.18
2022-10-01T11:05:30.456Z,3.85
2022-10-01T11:07:59.182Z,4.10
2022-10-01T11:10:30.895Z,2.70
2022-10-01T11:13:18.472Z,2.20
2022-10-01T11:15:50.680Z,5.80
2022-10-01T11:18:26.704Z,4.20
2022-10-01T11:21:01.354Z,15.65
2022-10-01T11:23:54.926Z,3.13
2022-10-01T11:26:26.235Z,2.42
2022-10-01T11:28:59.004Z,3.05
2022-10-01T11:31:32.515Z,2.40
2022-10-01T11:34:07.546Z,2.60
2022-10-01T11:36:41.203Z,2.60
2022-10-01T11:39:11.907Z,3.55
2022-10-01T11:41:41.162Z,4.85
2022-10-01T11:44:13.759Z,1.98
2022-10-01T11:46:43.577Z,3.00
2022-10-01T11:49:24.784Z,3.60
2022-10-01T11:51:55.942Z,2.58
2022-10-01T11:54:25.341Z,3.00
2022-10-01T11:57:11.608Z,5.35
2022-10-01T11:59:41.730Z,2.85
2022-10-01T12:02:18.383Z,2.90
2022-10-01T12:04:49.638Z,2.20
2022-10-01T12:07:21.428Z,2.20
2022-10-01T12:09:53.578Z,1.90
2022-10-01T12:12:23.772Z,1.92
2022-10-01T12:14:53.551Z,1.70
2022-10-01T12:17:23.360Z,1.70
2022-10-01T12:19:51.846Z,1.75
2022-10-01T12:22:24.653Z,1.88
2022-10-01T12:24:52.430Z,1.77
2022-10-01T12:27:36.316Z,1.75
2022-10-01T12:30:05.916Z,1.70
2022-10-01T12:32:38.217Z,1.65
2022-10-01T12:35:14.273Z,1.90
2022-10-01T12:37:53.197Z,1.60
2022-10-01T12:40:24.153Z,2.13
2022-10-01T12:43:04.175Z,1.70
2022-10-01T12:45:36.024Z,1.40
2022-10-01T12:48:08.017Z,1.40
2022-10-01T12:50:39.926Z,1.13
2022-10-01T12:53:20.547Z,1.35
2022-10-01T12:55:56.504Z,1.23
2022-10-01T12:58:37.096Z,0.80
2022-10-01T13:01:07.729Z,1.10
2022-10-01T13:04:03.052Z,1.00
2022-10-01T13:06:37.070Z,1.10
2022-10-01T13:09:09.120Z,1.30
2022-10-01T13:11:49.206Z,1.40
2022-10-01T13:14:18.819Z,1.20
2022-10-01T13:16:54.294Z,1.20
2022-10-01T13:19:24.863Z,1.05
2022-10-01T13:21:57.950Z,1.40
2022-10-01T13:24:29.321Z,3.80
2022-10-01T13:26:59.939Z,1.00
2022-10-01T13:29:35.095Z,1.20
2022-10-01T13:32:03.511Z,1.30
2022-10-01T13:34:38.045Z,1.30
2022-10-01T13:37:15.977Z,2.03
2022-10-01T13:39:45.075Z,1.10
2022-10-01T13:42:18.318Z,1.50
2022-10-01T13:44:45.725Z,3.38
2022-10-01T13:47:13.395Z,2.28
2022-10-01T13:49:42.562Z,1.60
2022-10-01T13:52:19.650Z,1.33
2022-10-01T13:54:50.347Z,1.67
2022-10-01T13:57:27.918Z,1.00
2022-10-01T13:59:59.123Z,2.03
2022-10-01T14:02:31.819Z,1.40
2022-10-01T14:05:05.725Z,1.70
2022-10-01T14:07:36.659Z,1.90
2022-10-01T14:10:06.006Z,1.70
2022-10-01T14:12:51.720Z,1.02
2022-10-01T14:15:52.948Z,1.20
2022-10-01T14:18:22.417Z,0.95
2022-10-01T14:20:53.226Z,1.10
2022-10-01T14:23:22.781Z,1.25
2022-10-01T14:25:54.731Z,0.90
2022-10-01T14:28:38.758Z,1.65
2022-10-01T14:31:08.783Z,1.40
2022-10-01T14:33:57.131Z,2.28
2022-10-01T14:36:29.464Z,1.20
2022-10-01T14:39:04.026Z,1.10
2022-10-01T14:41:35.714Z,1.10
2022-10-01T14:44:03.238Z,0.90
2022-10-01T14:46:30.807Z,1.20
2022-10-01T14:48:59.932Z,1.13
2022-10-01T14:51:28.407Z,1.30
2022-10-01T14:53:57.210Z,1.10
2022-10-01T14:56:24.942Z,1.02
2022-10-01T14:58:56.122Z,1.00
2022-10-01T15:01:24.658Z,1.20
2022-10-01T15:03:55.215Z,1.20
2022-10-01T15:06:23.613Z,1.30
2022-10-01T15:08:51.989Z,1.50
2022-10-01T15:11:22.499Z,1.83
2022-10-01T15:13:51.103Z,1.40
2022-10-01T15:16:20.815Z,1.20
2022-10-01T15:18:49.802Z,1.95
2022-10-01T15:21:19.258Z,2.00
2022-10-01T15:23:47.386Z,1.50
2022-10-01T15:26:19.202Z,1.30
2022-10-01T15:28:46.658Z,3.83
2022-10-01T15:31:14.347Z,1.50
2022-10-01T15:33:43.990Z,1.80
2022-10-01T15:36:13.934Z,1.23
2022-10-01T15:38:44.400Z,2.03
2022-10-01T15:41:31.163Z,2.35
2022-10-01T15:44:00.577Z,1.77
2022-10-01T15:46:31.325Z,1.35
2022-10-01T15:49:16.078Z,1.70
2022-10-01T15:52:10.097Z,2.13
2022-10-01T15:54:37.812Z,2.13
2022-10-01T15:57:06.132Z,1.55
2022-10-01T15:59:34.380Z,1.30
2022-10-01T16:02:01.898Z,1.45
2022-10-01T16:04:30.702Z,1.20
2022-10-01T16:06:58.069Z,1.13
2022-10-01T16:09:27.599Z,2.00
2022-10-01T16:11:56.599Z,2.05
2022-10-01T16:14:29.103Z,1.80
2022-10-01T16:17:11.364Z,3.45
2022-10-01T16:19:40.117Z,1.80
2022-10-01T16:22:15.363Z,1.77
2022-10-01T16:24:43.616Z,1.80
2022-10-01T16:27:14.945Z,2.00
2022-10-01T16:29:43.330Z,1.95
2022-10-01T16:32:13.895Z,2.00
2022-10-01T16:34:42.722Z,1.95
2022-10-01T16:37:10.185Z,2.03
2022-10-01T16:39:37.917Z,2.10
2022-10-01T16:42:22.791Z,1.60
2022-10-01T16:44:52.331Z,2.40
2022-10-01T16:47:19.778Z,2.13
2022-10-01T16:49:48.955Z,1.70
2022-10-01T16:52:17.586Z,2.70
2022-10-01T16:54:47.386Z,3.22
2022-10-01T16:57:16.402Z,2.40
2022-10-01T16:59:43.943Z,1.63
2022-10-01T17:02:12.555Z,1.70
2022-10-01T17:04:40.006Z,1.90
2022-10-01T17:07:08.816Z,1.88
2022-10-01T17:09:36.284Z,1.50
2022-10-01T17:12:03.752Z,1.52
2022-10-01T17:14:31.173Z,1.60
2022-10-01T17:16:58.650Z,1.42
2022-10-01T17:19:26.758Z,1.40
2022-10-01T17:21:55.775Z,1.27
2022-10-01T17:24:24.550Z,1.30
2022-10-01T17:26:52.057Z,1.65
2022-10-01T17:29:19.452Z,1.40
2022-10-01T17:31:50.464Z,1.42
2022-10-01T17:34:19.630Z,1.83
2022-10-01T17:36:47.122Z,1.08
2022-10-01T17:39:14.572Z,1.45
2022-10-01T17:41:43.358Z,2.00
2022-10-01T17:44:10.864Z,1.85
2022-10-01T17:46:38.352Z,2.50
2022-10-01T17:49:08.185Z,2.10
2022-10-01T17:51:35.923Z,17.05
2022-10-01T17:54:04.569Z,2.30
2022-10-01T17:56:33.061Z,2.28
2022-10-01T17:59:02.148Z,2.33
2022-10-01T18:01:30.191Z,2.33
2022-10-01T18:03:57.658Z,2.20
2022-10-01T18:06:25.489Z,2.25
2022-10-01T18:08:56.781Z,2.03
2022-10-01T18:11:25.275Z,2.15
2022-10-01T18:13:52.913Z,1.92
2022-10-01T18:16:22.273Z,1.67
2022-10-01T18:21:42.464Z,2.20
2022-10-01T18:24:09.877Z,2.10
2022-10-01T18:26:37.648Z,2.08
2022-10-01T18:29:05.766Z,12.82
2022-10-01T18:31:36.400Z,5.00
2022-10-01T18:34:06.996Z,28.08
2022-10-01T18:36:40.265Z,8.65
2022-10-01T18:39:12.872Z,7.13
2022-10-01T18:41:41.023Z,7.35
2022-10-01T18:44:10.611Z,9.02
2022-10-01T18:46:52.075Z,16.23
2022-10-01T18:49:52.742Z,8.02
2022-10-01T18:52:23.964Z,4.13
2022-10-01T18:55:02.860Z,3.20
2022-10-01T18:57:34.724Z,2.83
2022-10-01T19:00:10.235Z,2.90
2022-10-01T19:02:50.516Z,3.13
2022-10-01T19:05:29.567Z,5.00
2022-10-01T19:08:05.712Z,3.35
2022-10-01T19:10:37.723Z,2.78
2022-10-01T19:13:11.602Z,2.60
2022-10-01T19:15:44.889Z,3.10
2022-10-01T19:18:27.172Z,2.30
2022-10-01T19:21:03.644Z,2.55
2022-10-01T19:23:42.244Z,2.72
2022-10-01T19:26:13.072Z,3.55
2022-10-01T19:28:46.980Z,2.95
2022-10-01T19:31:16.349Z,2.80
2022-10-01T19:33:50.102Z,2.72
2022-10-01T19:36:24.270Z,2.65
2022-10-01T19:38:52.101Z,2.50
2022-10-01T19:41:22.573Z,2.78
2022-10-01T19:43:57.423Z,2.63
2022-10-01T19:46:27.573Z,2.20
2022-10-01T19:48:58.014Z,3.38
2022-10-01T19:51:29.285Z,2.50
2022-10-01T19:54:00.880Z,2.17
2022-10-01T19:56:29.723Z,1.90
2022-10-01T19:58:57.267Z,2.38
2022-10-01T20:01:29.804Z,2.13
2022-10-01T20:04:00.553Z,2.30
2022-10-01T20:06:31.751Z,2.78
2022-10-01T20:09:00.253Z,2.10
2022-10-01T20:11:30.240Z,2.40
2022-10-01T20:14:35.945Z,2.22
2022-10-01T20:17:08.298Z,2.95
2022-10-01T20:19:39.199Z,3.40
2022-10-01T20:22:14.261Z,3.38
2022-10-01T20:24:49.151Z,3.10
2022-10-01T20:27:22.165Z,2.55
2022-10-01T20:29:52.396Z,2.75
2022-10-01T20:32:23.469Z,2.53
2022-10-01T20:34:59.096Z,1.92
2022-10-01T20:37:37.066Z,2.08
2022-10-01T20:40:06.711Z,2.20
2022-10-01T20:42:37.629Z,2.33
2022-10-01T20:45:06.519Z,2.15
2022-10-01T20:47:42.098Z,2.72
2022-10-01T20:50:16.507Z,2.45
2022-10-01T20:52:48.589Z,3.33
2022-10-01T20:55:18.083Z,2.60
2022-10-01T20:57:47.696Z,2.70
2022-10-01T21:00:18.625Z,3.35
2022-10-01T21:02:48.257Z,3.13
2022-10-01T21:05:18.813Z,2.88
2022-10-01T21:07:52.503Z,5.38
2022-10-01T21:10:27.107Z,4.72
2022-10-01T21:13:01.707Z,3.22
2022-10-01T21:15:35.472Z,3.78
2022-10-01T21:18:05.490Z,6.45
2022-10-01T21:20:48.764Z,3.80
2022-10-01T21:23:34.170Z,3.40
2022-10-01T21:26:06.427Z,3.25
2022-10-01T21:28:40.316Z,3.05
2022-10-01T21:31:13.544Z,2.90
2022-10-01T21:33:46.051Z,3.47
2022-10-01T21:36:23.237Z,3.53
2022-10-01T21:38:56.327Z,3.80
2022-10-01T21:41:32.910Z,3.60
2022-10-01T21:44:11.035Z,3.20
2022-10-01T21:46:46.920Z,2.92
2022-10-01T21:49:23.296Z,3.40
2022-10-01T21:51:58.709Z,3.40
2022-10-01T21:54:53.404Z,4.75
2022-10-01T21:57:36.309Z,2.65
2022-10-01T22:00:16.492Z,3.15
2022-10-01T22:02:48.701Z,3.33
2022-10-01T22:05:23.211Z,3.65
2022-10-01T22:07:54.049Z,2.47
2022-10-01T22:10:25.297Z,2.70
2022-10-01T22:12:58.715Z,3.08
2022-10-01T22:15:28.441Z,2.40
2022-10-01T22:17:57.627Z,3.42
2022-10-01T22:20:27.870Z,4.00
2022-10-01T22:22:57.543Z,3.47
2022-10-01T22:25:26.563Z,5.15
2022-10-01T22:27:58.772Z,3.75
2022-10-01T22:30:28.775Z,3.40
2022-10-01T22:32:59.514Z,2.72
2022-10-01T22:35:28.265Z,3.72
2022-10-01T22:37:57.395Z,3.22
2022-10-01T22:40:28.039Z,3.58
2022-10-01T22:42:59.663Z,3.50
2022-10-01T22:45:42.372Z,3.63
2022-10-01T22:48:15.373Z,2.78
2022-10-01T22:50:48.574Z,3.65
2022-10-01T22:53:22.806Z,3.13
2022-10-01T22:55:53.372Z,2.92
2022-10-01T22:58:30.683Z,2.97
2022-10-01T23:01:03.666Z,2.78
2022-10-01T23:03:38.750Z,2.63
2022-10-01T23:06:08.126Z,2.95
2022-10-01T23:08:40.410Z,2.70
2022-10-01T23:11:12.583Z,3.15
2022-10-01T23:13:44.179Z,3.03
2022-10-01T23:16:15.581Z,3.40
2022-10-01T23:18:48.943Z,3.33
2022-10-01T23:21:22.288Z,2.75
2022-10-01T23:23:54.462Z,2.55
2022-10-01T23:26:27.351Z,2.75
2022-10-01T23:29:02.173Z,3.03
2022-10-01T23:31:34.237Z,2.60
2022-10-01T23:34:06.284Z,2.75
2022-10-01T23:36:37.181Z,3.00
2022-10-01T23:39:17.467Z,3.42
2022-10-01T23:41:48.667Z,3.38
2022-10-01T23:44:18.877Z,3.58
2022-10-01T23:46:49.840Z,3.25
2022-10-01T23:49:18.466Z,3.38
2022-10-01T23:51:48.783Z,3.33
2022-10-01T23:54:20.563Z,3.97
2022-10-01T23:56:49.899Z,2.92
2022-10-01T23:59:22.330Z,3.00
